Terminal Aerodrome Forecast
Issued by NWS Mt. Holly, NJ

Home | Current Version | Previous Version | Text Only | Print | Product List | Glossary On
Versions: 1 2 3 4 5 6 7 8 9 10 11 12 13 14 15 16 17
522
FTUS41 KPHI 101720
TAFTTN
TAF
KTTN 101720Z 1018/1118 31010G18KT P6SM BKN050
     FM102200 29006KT P6SM SCT040 BKN200
     FM110800 VRB03KT P6SM OVC100
     FM111400 VRB04KT P6SM OVC050=

USA.gov is the U.S. government's official web portal to all federal, state and local government web resources and services.